sensor_id;sensor_type;location;lat;lon;timestamp;pressure;altitude;pressure_sealevel;temperature;humidity
4576;BME280;2300;51.874;8.430;2022-08-23T00:01:31;100590.16;;;21.31;63.28
4576;BME280;2300;51.874;8.430;2022-08-23T00:04:01;100590.41;;;21.34;63.38
4576;BME280;2300;51.874;8.430;2022-08-23T00:06:30;100591.28;;;21.30;63.09
4576;BME280;2300;51.874;8.430;2022-08-23T00:08:57;100590.16;;;21.31;64.03
4576;BME280;2300;51.874;8.430;2022-08-23T00:11:26;100597.22;;;21.28;63.54
4576;BME280;2300;51.874;8.430;2022-08-23T00:13:52;100591.38;;;21.25;63.89
4576;BME280;2300;51.874;8.430;2022-08-23T00:16:19;100572.72;;;21.20;64.05
4576;BME280;2300;51.874;8.430;2022-08-23T00:18:45;100591.78;;;21.18;64.03
4576;BME280;2300;51.874;8.430;2022-08-23T00:21:13;100592.59;;;21.19;63.97
4576;BME280;2300;51.874;8.430;2022-08-23T00:23:41;100586.78;;;21.15;64.14
4576;BME280;2300;51.874;8.430;2022-08-23T00:26:07;100580.44;;;21.10;63.96
4576;BME280;2300;51.874;8.430;2022-08-23T00:28:34;100582.41;;;21.09;64.48
4576;BME280;2300;51.874;8.430;2022-08-23T00:31:00;100592.44;;;21.10;64.38
4576;BME280;2300;51.874;8.430;2022-08-23T00:33:27;100587.41;;;21.12;64.53
4576;BME280;2300;51.874;8.430;2022-08-23T00:35:53;100583.56;;;21.08;64.27
4576;BME280;2300;51.874;8.430;2022-08-23T00:38:20;100594.19;;;21.06;64.21
4576;BME280;2300;51.874;8.430;2022-08-23T00:40:50;100589.44;;;21.07;64.15
4576;BME280;2300;51.874;8.430;2022-08-23T00:43:22;100583.47;;;21.13;64.25
4576;BME280;2300;51.874;8.430;2022-08-23T00:46:14;100580.16;;;21.11;64.06
4576;BME280;2300;51.874;8.430;2022-08-23T00:49:00;100580.78;;;21.08;63.79
4576;BME280;2300;51.874;8.430;2022-08-23T00:51:33;100584.06;;;21.10;64.08
4576;BME280;2300;51.874;8.430;2022-08-23T00:54:01;100578.19;;;21.12;64.19
4576;BME280;2300;51.874;8.430;2022-08-23T00:56:32;100581.19;;;21.15;64.15
4576;BME280;2300;51.874;8.430;2022-08-23T00:58:59;100577.16;;;21.08;64.39
4576;BME280;2300;51.874;8.430;2022-08-23T01:01:47;100582.13;;;21.11;63.86
4576;BME280;2300;51.874;8.430;2022-08-23T01:04:14;100589.06;;;21.13;63.97
4576;BME280;2300;51.874;8.430;2022-08-23T01:06:44;100584.06;;;21.10;63.97
4576;BME280;2300;51.874;8.430;2022-08-23T01:09:15;100586.56;;;21.12;63.85
4576;BME280;2300;51.874;8.430;2022-08-23T01:11:48;100588.44;;;21.16;63.72
4576;BME280;2300;51.874;8.430;2022-08-23T01:14:19;100587.69;;;21.11;63.45
4576;BME280;2300;51.874;8.430;2022-08-23T01:16:50;100590.69;;;21.14;63.47
4576;BME280;2300;51.874;8.430;2022-08-23T01:19:24;100588.00;;;21.09;63.48
4576;BME280;2300;51.874;8.430;2022-08-23T01:21:58;100588.25;;;21.13;63.38
4576;BME280;2300;51.874;8.430;2022-08-23T01:24:27;100590.19;;;21.12;63.59
4576;BME280;2300;51.874;8.430;2022-08-23T01:26:54;100588.75;;;21.15;63.45
4576;BME280;2300;51.874;8.430;2022-08-23T01:29:21;100593.00;;;21.12;63.64
4576;BME280;2300;51.874;8.430;2022-08-23T01:31:48;100594.03;;;21.16;63.16
4576;BME280;2300;51.874;8.430;2022-08-23T01:34:15;100597.34;;;21.18;63.13
4576;BME280;2300;51.874;8.430;2022-08-23T01:36:42;100591.53;;;21.15;63.20
4576;BME280;2300;51.874;8.430;2022-08-23T01:39:09;100588.97;;;21.18;63.21
4576;BME280;2300;51.874;8.430;2022-08-23T01:41:39;100597.94;;;21.15;63.43
4576;BME280;2300;51.874;8.430;2022-08-23T01:44:05;100595.69;;;21.17;63.40
4576;BME280;2300;51.874;8.430;2022-08-23T01:46:33;100594.13;;;21.11;63.36
4576;BME280;2300;51.874;8.430;2022-08-23T01:49:01;100588.81;;;21.10;63.77
4576;BME280;2300;51.874;8.430;2022-08-23T01:51:28;100599.16;;;21.09;63.87
4576;BME280;2300;51.874;8.430;2022-08-23T01:53:54;100587.50;;;21.07;63.66
4576;BME280;2300;51.874;8.430;2022-08-23T01:56:21;100589.25;;;21.03;63.77
4576;BME280;2300;51.874;8.430;2022-08-23T01:58:49;100588.16;;;20.99;64.02
4576;BME280;2300;51.874;8.430;2022-08-23T02:01:16;100586.63;;;20.93;64.08
4576;BME280;2300;51.874;8.430;2022-08-23T02:03:44;100585.53;;;20.89;63.93
4576;BME280;2300;51.874;8.430;2022-08-23T02:06:11;100593.69;;;20.85;64.16
4576;BME280;2300;51.874;8.430;2022-08-23T02:08:37;100584.22;;;20.86;64.25
4576;BME280;2300;51.874;8.430;2022-08-23T02:11:23;100587.28;;;20.85;64.45
4576;BME280;2300;51.874;8.430;2022-08-23T02:13:52;100584.59;;;20.80;64.70
4576;BME280;2300;51.874;8.430;2022-08-23T02:16:23;100582.91;;;20.79;64.45
4576;BME280;2300;51.874;8.430;2022-08-23T02:18:51;100588.06;;;20.72;64.52
4576;BME280;2300;51.874;8.430;2022-08-23T02:21:17;100588.66;;;20.69;64.58
4576;BME280;2300;51.874;8.430;2022-08-23T02:23:44;100590.69;;;20.63;65.14
4576;BME280;2300;51.874;8.430;2022-08-23T02:26:11;100575.19;;;20.57;65.44
4576;BME280;2300;51.874;8.430;2022-08-23T02:28:38;100578.41;;;20.45;65.27
4576;BME280;2300;51.874;8.430;2022-08-23T02:31:07;100586.50;;;20.42;65.20
4576;BME280;2300;51.874;8.430;2022-08-23T02:33:33;100584.94;;;20.36;65.97
4576;BME280;2300;51.874;8.430;2022-08-23T02:36:00;100583.28;;;20.35;65.50
4576;BME280;2300;51.874;8.430;2022-08-23T02:38:27;100583.84;;;20.32;65.55
4576;BME280;2300;51.874;8.430;2022-08-23T02:40:53;100584.19;;;20.30;65.63
4576;BME280;2300;51.874;8.430;2022-08-23T02:43:20;100589.22;;;20.28;65.66
4576;BME280;2300;51.874;8.430;2022-08-23T02:45:46;100586.50;;;20.23;65.81
4576;BME280;2300;51.874;8.430;2022-08-23T02:48:14;100595.16;;;20.22;65.88
4576;BME280;2300;51.874;8.430;2022-08-23T02:50:40;100592.50;;;20.11;66.44
4576;BME280;2300;51.874;8.430;2022-08-23T02:53:07;100586.00;;;20.16;65.81
4576;BME280;2300;51.874;8.430;2022-08-23T02:55:34;100591.97;;;20.09;66.04
4576;BME280;2300;51.874;8.430;2022-08-23T02:58:01;100585.09;;;20.02;66.31
4576;BME280;2300;51.874;8.430;2022-08-23T03:00:29;100590.09;;;20.05;66.28
4576;BME280;2300;51.874;8.430;2022-08-23T03:02:56;100590.38;;;20.03;66.34
4576;BME280;2300;51.874;8.430;2022-08-23T03:05:24;100587.88;;;20.02;66.42
4576;BME280;2300;51.874;8.430;2022-08-23T03:07:50;100581.53;;;19.96;66.62
4576;BME280;2300;51.874;8.430;2022-08-23T03:10:17;100584.38;;;19.91;66.78
4576;BME280;2300;51.874;8.430;2022-08-23T03:12:44;100596.38;;;19.92;67.01
4576;BME280;2300;51.874;8.430;2022-08-23T03:15:10;100601.41;;;19.90;66.64
4576;BME280;2300;51.874;8.430;2022-08-23T03:17:37;100593.94;;;19.85;66.75
4576;BME280;2300;51.874;8.430;2022-08-23T03:20:05;100597.72;;;19.70;67.16
4576;BME280;2300;51.874;8.430;2022-08-23T03:22:34;100591.31;;;19.70;67.26
4576;BME280;2300;51.874;8.430;2022-08-23T03:25:03;100592.19;;;19.65;67.12
4576;BME280;2300;51.874;8.430;2022-08-23T03:27:29;100595.63;;;19.57;67.49
4576;BME280;2300;51.874;8.430;2022-08-23T03:29:57;100595.66;;;19.52;67.60
4576;BME280;2300;51.874;8.430;2022-08-23T03:32:23;100594.06;;;19.46;67.84
4576;BME280;2300;51.874;8.430;2022-08-23T03:34:50;100596.28;;;19.44;68.01
4576;BME280;2300;51.874;8.430;2022-08-23T03:37:17;100597.47;;;19.38;68.47
4576;BME280;2300;51.874;8.430;2022-08-23T03:39:45;100594.38;;;19.40;68.04
4576;BME280;2300;51.874;8.430;2022-08-23T03:42:11;100589.09;;;19.38;68.22
4576;BME280;2300;51.874;8.430;2022-08-23T03:44:38;100596.38;;;19.34;68.56
4576;BME280;2300;51.874;8.430;2022-08-23T03:47:04;100603.66;;;19.30;69.02
4576;BME280;2300;51.874;8.430;2022-08-23T03:49:31;100605.09;;;19.27;68.58
4576;BME280;2300;51.874;8.430;2022-08-23T03:51:58;100598.16;;;19.25;68.97
4576;BME280;2300;51.874;8.430;2022-08-23T03:54:25;100600.38;;;19.23;68.95
4576;BME280;2300;51.874;8.430;2022-08-23T03:56:55;100602.38;;;19.17;69.37
4576;BME280;2300;51.874;8.430;2022-08-23T03:59:24;100598.00;;;19.11;69.28
4576;BME280;2300;51.874;8.430;2022-08-23T04:01:50;100599.41;;;19.09;69.17
4576;BME280;2300;51.874;8.430;2022-08-23T04:04:17;100609.47;;;19.05;69.55
4576;BME280;2300;51.874;8.430;2022-08-23T04:06:43;100610.84;;;19.02;69.30
4576;BME280;2300;51.874;8.430;2022-08-23T04:09:11;100616.78;;;18.96;69.79
4576;BME280;2300;51.874;8.430;2022-08-23T04:11:38;100612.13;;;18.86;69.92
4576;BME280;2300;51.874;8.430;2022-08-23T04:14:06;100615.97;;;18.90;70.28
4576;BME280;2300;51.874;8.430;2022-08-23T04:16:34;100622.94;;;18.88;70.53
4576;BME280;2300;51.874;8.430;2022-08-23T04:19:03;100618.53;;;18.81;70.49
4576;BME280;2300;51.874;8.430;2022-08-23T04:21:29;100622.19;;;18.72;70.94
4576;BME280;2300;51.874;8.430;2022-08-23T04:23:57;100611.41;;;18.65;70.67
4576;BME280;2300;51.874;8.430;2022-08-23T04:26:23;100627.50;;;18.68;70.50
4576;BME280;2300;51.874;8.430;2022-08-23T04:28:50;100630.91;;;18.60;71.05
4576;BME280;2300;51.874;8.430;2022-08-23T04:31:19;100630.91;;;18.60;71.32
4576;BME280;2300;51.874;8.430;2022-08-23T04:33:45;100634.50;;;18.56;71.72
4576;BME280;2300;51.874;8.430;2022-08-23T04:36:12;100642.31;;;18.54;71.53
4576;BME280;2300;51.874;8.430;2022-08-23T04:38:38;100635.16;;;18.42;71.81
4576;BME280;2300;51.874;8.430;2022-08-23T04:41:05;100635.16;;;18.42;72.03
4576;BME280;2300;51.874;8.430;2022-08-23T04:43:49;100633.78;;;18.35;72.61
4576;BME280;2300;51.874;8.430;2022-08-23T04:46:15;100636.59;;;18.30;72.66
4576;BME280;2300;51.874;8.430;2022-08-23T04:48:44;100638.25;;;18.31;72.36
4576;BME280;2300;51.874;8.430;2022-08-23T04:51:12;100642.72;;;18.27;72.55
4576;BME280;2300;51.874;8.430;2022-08-23T04:53:38;100649.66;;;18.24;73.49
4576;BME280;2300;51.874;8.430;2022-08-23T04:56:06;100651.66;;;18.19;73.70
4576;BME280;2300;51.874;8.430;2022-08-23T04:58:33;100659.44;;;18.17;73.88
4576;BME280;2300;51.874;8.430;2022-08-23T05:01:02;100660.00;;;18.19;74.13
4576;BME280;2300;51.874;8.430;2022-08-23T05:03:29;100663.59;;;18.14;74.36
4576;BME280;2300;51.874;8.430;2022-08-23T05:05:58;100660.56;;;18.11;75.34
4576;BME280;2300;51.874;8.430;2022-08-23T05:08:25;100657.81;;;18.06;75.71
4576;BME280;2300;51.874;8.430;2022-08-23T05:10:52;100661.41;;;18.11;74.77
4576;BME280;2300;51.874;8.430;2022-08-23T05:13:19;100664.47;;;18.10;75.31
4576;BME280;2300;51.874;8.430;2022-08-23T05:15:49;100672.50;;;18.16;75.40
4576;BME280;2300;51.874;8.430;2022-08-23T05:18:16;100672.16;;;18.38;74.72
4576;BME280;2300;51.874;8.430;2022-08-23T05:20:43;100676.72;;;18.68;73.78
4576;BME280;2300;51.874;8.430;2022-08-23T05:23:11;100676.84;;;19.02;72.39
4576;BME280;2300;51.874;8.430;2022-08-23T05:25:38;100686.03;;;19.36;71.81
4576;BME280;2300;51.874;8.430;2022-08-23T05:28:18;100678.50;;;19.70;70.87
4576;BME280;2300;51.874;8.430;2022-08-23T05:30:53;100686.00;;;19.99;70.31
4576;BME280;2300;51.874;8.430;2022-08-23T05:33:21;100691.78;;;20.31;69.44
4576;BME280;2300;51.874;8.430;2022-08-23T05:35:47;100691.50;;;20.57;68.94
4576;BME280;2300;51.874;8.430;2022-08-23T05:38:15;100698.47;;;20.78;68.09
4576;BME280;2300;51.874;8.430;2022-08-23T05:40:41;100702.38;;;20.95;68.03
4576;BME280;2300;51.874;8.430;2022-08-23T05:43:08;100687.19;;;21.20;67.31
4576;BME280;2300;51.874;8.430;2022-08-23T05:45:35;100689.69;;;21.41;66.74
4576;BME280;2300;51.874;8.430;2022-08-23T05:48:02;100695.25;;;21.59;65.89
4576;BME280;2300;51.874;8.430;2022-08-23T05:50:28;100696.84;;;21.79;65.89
4576;BME280;2300;51.874;8.430;2022-08-23T05:52:55;100690.44;;;21.92;65.98
4576;BME280;2300;51.874;8.430;2022-08-23T05:55:23;100698.75;;;21.97;65.66
4576;BME280;2300;51.874;8.430;2022-08-23T05:57:49;100705.22;;;22.11;65.64
4576;BME280;2300;51.874;8.430;2022-08-23T06:00:16;100699.63;;;22.11;65.78
4576;BME280;2300;51.874;8.430;2022-08-23T06:02:42;100702.09;;;22.13;64.35
4576;BME280;2300;51.874;8.430;2022-08-23T06:05:09;100706.16;;;22.20;65.14
4576;BME280;2300;51.874;8.430;2022-08-23T06:07:36;100707.00;;;22.35;64.34
4576;BME280;2300;51.874;8.430;2022-08-23T06:10:03;100712.09;;;22.33;64.37
4576;BME280;2300;51.874;8.430;2022-08-23T06:12:31;100711.13;;;22.23;65.26
4576;BME280;2300;51.874;8.430;2022-08-23T06:14:59;100714.22;;;22.08;65.20
4576;BME280;2300;51.874;8.430;2022-08-23T06:17:26;100720.69;;;21.90;65.38
4576;BME280;2300;51.874;8.430;2022-08-23T06:19:52;100713.44;;;21.89;65.26
4576;BME280;2300;51.874;8.430;2022-08-23T06:22:19;100723.56;;;21.85;65.58
4576;BME280;2300;51.874;8.430;2022-08-23T06:24:46;100715.94;;;21.58;66.78
4576;BME280;2300;51.874;8.430;2022-08-23T06:27:12;100722.22;;;21.50;66.92
4576;BME280;2300;51.874;8.430;2022-08-23T06:29:40;100717.31;;;21.61;67.22
4576;BME280;2300;51.874;8.430;2022-08-23T06:32:07;100716.31;;;21.70;67.32
4576;BME280;2300;51.874;8.430;2022-08-23T06:34:35;100718.25;;;21.70;66.93
4576;BME280;2300;51.874;8.430;2022-08-23T06:37:04;100715.47;;;21.70;67.79
4576;BME280;2300;51.874;8.430;2022-08-23T06:39:31;100729.03;;;21.76;67.88
4576;BME280;2300;51.874;8.430;2022-08-23T06:42:01;100726.88;;;21.87;67.00
4576;BME280;2300;51.874;8.430;2022-08-23T06:44:28;100729.22;;;21.99;66.69
4576;BME280;2300;51.874;8.430;2022-08-23T06:46:57;100726.16;;;22.28;66.90
4576;BME280;2300;51.874;8.430;2022-08-23T06:49:24;100727.81;;;22.56;66.05
4576;BME280;2300;51.874;8.430;2022-08-23T06:51:53;100735.50;;;22.78;65.64
4576;BME280;2300;51.874;8.430;2022-08-23T06:54:22;100732.78;;;22.86;64.57
4576;BME280;2300;51.874;8.430;2022-08-23T06:56:49;100733.31;;;22.88;64.18
4576;BME280;2300;51.874;8.430;2022-08-23T06:59:17;100732.41;;;22.79;64.54
4576;BME280;2300;51.874;8.430;2022-08-23T07:01:46;100733.00;;;22.49;64.65
4576;BME280;2300;51.874;8.430;2022-08-23T07:04:17;100732.81;;;22.59;65.50
4576;BME280;2300;51.874;8.430;2022-08-23T07:06:45;100722.84;;;22.94;65.00
4576;BME280;2300;51.874;8.430;2022-08-23T07:09:12;100735.78;;;23.39;63.93
4576;BME280;2300;51.874;8.430;2022-08-23T07:11:39;100738.13;;;23.68;63.74
4576;BME280;2300;51.874;8.430;2022-08-23T07:14:07;100744.00;;;24.03;62.69
4576;BME280;2300;51.874;8.430;2022-08-23T07:16:37;100745.84;;;24.38;62.28
4576;BME280;2300;51.874;8.430;2022-08-23T07:24:54;100743.59;;;24.57;61.83
4576;BME280;2300;51.874;8.430;2022-08-23T07:27:21;100747.03;;;24.85;62.43
4576;BME280;2300;51.874;8.430;2022-08-23T07:29:48;100736.78;;;24.81;60.69
4576;BME280;2300;51.874;8.430;2022-08-23T07:32:14;100747.19;;;24.80;59.78
4576;BME280;2300;51.874;8.430;2022-08-23T07:34:40;100740.13;;;25.00;59.05
4576;BME280;2300;51.874;8.430;2022-08-23T07:37:08;100750.72;;;25.11;60.02
4576;BME280;2300;51.874;8.430;2022-08-23T07:39:34;100746.41;;;25.05;59.73
4576;BME280;2300;51.874;8.430;2022-08-23T07:42:02;100753.19;;;25.30;59.73
4576;BME280;2300;51.874;8.430;2022-08-23T07:44:29;100747.47;;;25.52;58.39
4576;BME280;2300;51.874;8.430;2022-08-23T07:46:58;100745.78;;;25.69;57.59
4576;BME280;2300;51.874;8.430;2022-08-23T07:49:24;100745.13;;;25.72;57.34
4576;BME280;2300;51.874;8.430;2022-08-23T07:51:51;100750.38;;;25.99;56.39
4576;BME280;2300;51.874;8.430;2022-08-23T07:54:18;100752.84;;;26.09;57.10
4576;BME280;2300;51.874;8.430;2022-08-23T07:56:46;100749.34;;;26.12;56.21
4576;BME280;2300;51.874;8.430;2022-08-23T07:59:14;100750.59;;;26.40;56.89
4576;BME280;2300;51.874;8.430;2022-08-23T08:01:42;100744.78;;;26.46;56.57
4576;BME280;2300;51.874;8.430;2022-08-23T08:04:09;100740.56;;;26.60;55.61
4576;BME280;2300;51.874;8.430;2022-08-23T08:06:39;100742.38;;;26.73;56.49
4576;BME280;2300;51.874;8.430;2022-08-23T08:09:07;100751.06;;;26.89;54.80
4576;BME280;2300;51.874;8.430;2022-08-23T08:11:34;100755.69;;;27.14;56.58
4576;BME280;2300;51.874;8.430;2022-08-23T08:14:03;100752.63;;;27.28;54.92
4576;BME280;2300;51.874;8.430;2022-08-23T08:16:33;100763.81;;;27.37;54.43
4576;BME280;2300;51.874;8.430;2022-08-23T08:19:01;100752.91;;;27.35;55.02
4576;BME280;2300;51.874;8.430;2022-08-23T08:21:28;100750.31;;;27.21;54.90
4576;BME280;2300;51.874;8.430;2022-08-23T08:23:55;100750.84;;;27.23;53.73
4576;BME280;2300;51.874;8.430;2022-08-23T08:26:23;100749.47;;;27.30;55.47
4576;BME280;2300;51.874;8.430;2022-08-23T08:28:49;100754.00;;;27.22;53.83
4576;BME280;2300;51.874;8.430;2022-08-23T08:31:17;100758.75;;;27.30;54.07
4576;BME280;2300;51.874;8.430;2022-08-23T08:33:45;100753.78;;;27.48;53.05
4576;BME280;2300;51.874;8.430;2022-08-23T08:36:28;100757.09;;;27.29;52.82
4576;BME280;2300;51.874;8.430;2022-08-23T08:38:55;100756.31;;;27.20;54.75
4576;BME280;2300;51.874;8.430;2022-08-23T08:41:25;100763.34;;;27.05;55.04
4576;BME280;2300;51.874;8.430;2022-08-23T08:44:04;100768.84;;;27.02;54.68
4576;BME280;2300;51.874;8.430;2022-08-23T08:46:40;100762.03;;;26.82;55.09
4576;BME280;2300;51.874;8.430;2022-08-23T08:49:13;100764.09;;;26.56;54.23
4576;BME280;2300;51.874;8.430;2022-08-23T08:51:46;100762.00;;;26.44;56.92
4576;BME280;2300;51.874;8.430;2022-08-23T08:54:18;100762.88;;;26.27;56.83
4576;BME280;2300;51.874;8.430;2022-08-23T08:56:50;100761.16;;;26.06;56.82
4576;BME280;2300;51.874;8.430;2022-08-23T08:59:20;100764.78;;;25.89;56.59
4576;BME280;2300;51.874;8.430;2022-08-23T09:01:47;100760.34;;;25.79;57.35
4576;BME280;2300;51.874;8.430;2022-08-23T09:04:15;100762.66;;;25.69;57.80
4576;BME280;2300;51.874;8.430;2022-08-23T09:06:48;100765.63;;;25.55;58.14
4576;BME280;2300;51.874;8.430;2022-08-23T09:09:29;100761.69;;;25.47;58.00
4576;BME280;2300;51.874;8.430;2022-08-23T09:12:10;100756.69;;;25.44;57.86
4576;BME280;2300;51.874;8.430;2022-08-23T09:14:48;100756.88;;;25.48;58.16
4576;BME280;2300;51.874;8.430;2022-08-23T09:17:22;100760.00;;;25.46;56.90
4576;BME280;2300;51.874;8.430;2022-08-23T09:19:55;100759.50;;;25.44;57.06
4576;BME280;2300;51.874;8.430;2022-08-23T09:22:31;100761.03;;;25.59;58.50
4576;BME280;2300;51.874;8.430;2022-08-23T09:24:59;100760.84;;;25.64;59.21
4576;BME280;2300;51.874;8.430;2022-08-23T09:27:26;100759.34;;;25.67;58.67
4576;BME280;2300;51.874;8.430;2022-08-23T09:29:55;100754.72;;;25.62;59.11
4576;BME280;2300;51.874;8.430;2022-08-23T09:32:30;100765.94;;;25.71;58.64
4576;BME280;2300;51.874;8.430;2022-08-23T09:35:08;100759.00;;;25.77;58.72
4576;BME280;2300;51.874;8.430;2022-08-23T09:37:46;100756.34;;;25.89;58.23
4576;BME280;2300;51.874;8.430;2022-08-23T09:40:18;100767.25;;;26.16;58.17
4576;BME280;2300;51.874;8.430;2022-08-23T09:42:45;100761.63;;;26.63;56.90
4576;BME280;2300;51.874;8.430;2022-08-23T09:45:25;100767.41;;;27.25;56.00
4576;BME280;2300;51.874;8.430;2022-08-23T09:47:52;100763.56;;;27.71;56.85
4576;BME280;2300;51.874;8.430;2022-08-23T09:50:25;100764.50;;;27.96;55.30
4576;BME280;2300;51.874;8.430;2022-08-23T09:52:55;100762.06;;;28.06;55.80
4576;BME280;2300;51.874;8.430;2022-08-23T09:55:30;100751.38;;;28.24;54.59
4576;BME280;2300;51.874;8.430;2022-08-23T09:57:58;100758.38;;;28.39;53.77
4576;BME280;2300;51.874;8.430;2022-08-23T10:00:27;100751.56;;;28.76;52.24
4576;BME280;2300;51.874;8.430;2022-08-23T10:03:21;100755.59;;;29.00;52.40
4576;BME280;2300;51.874;8.430;2022-08-23T10:05:51;100749.63;;;29.01;51.91
4576;BME280;2300;51.874;8.430;2022-08-23T10:08:23;100736.84;;;29.07;51.32
4576;BME280;2300;51.874;8.430;2022-08-23T10:10:51;100734.63;;;28.88;49.05
4576;BME280;2300;51.874;8.430;2022-08-23T10:13:18;100737.00;;;28.99;49.02
4576;BME280;2300;51.874;8.430;2022-08-23T10:15:52;100745.66;;;29.18;49.19
4576;BME280;2300;51.874;8.430;2022-08-23T10:18:26;100738.22;;;29.38;48.14
4576;BME280;2300;51.874;8.430;2022-08-23T10:21:03;100740.91;;;29.46;49.85
4576;BME280;2300;51.874;8.430;2022-08-23T10:23:40;100747.72;;;29.57;49.65
4576;BME280;2300;51.874;8.430;2022-08-23T10:26:17;100739.84;;;29.39;47.14
4576;BME280;2300;51.874;8.430;2022-08-23T10:28:50;100727.56;;;29.59;50.03
4576;BME280;2300;51.874;8.430;2022-08-23T10:31:42;100734.06;;;29.47;47.19
4576;BME280;2300;51.874;8.430;2022-08-23T10:34:23;100728.53;;;29.39;50.23
4576;BME280;2300;51.874;8.430;2022-08-23T10:37:05;100731.28;;;29.35;49.48
4576;BME280;2300;51.874;8.430;2022-08-23T10:39:42;100728.84;;;29.49;50.16
4576;BME280;2300;51.874;8.430;2022-08-23T10:42:20;100724.19;;;29.53;48.65
4576;BME280;2300;51.874;8.430;2022-08-23T10:44:54;100722.75;;;29.47;49.51
4576;BME280;2300;51.874;8.430;2022-08-23T10:47:28;100729.31;;;29.63;48.95
4576;BME280;2300;51.874;8.430;2022-08-23T10:50:03;100733.91;;;29.68;47.53
4576;BME280;2300;51.874;8.430;2022-08-23T10:52:36;100734.00;;;29.71;48.24
4576;BME280;2300;51.874;8.430;2022-08-23T10:55:08;100732.06;;;29.76;48.10
4576;BME280;2300;51.874;8.430;2022-08-23T10:57:49;100724.94;;;29.66;47.64
4576;BME280;2300;51.874;8.430;2022-08-23T11:00:19;100724.50;;;29.64;48.19
4576;BME280;2300;51.874;8.430;2022-08-23T11:02:53;100725.72;;;29.79;47.94
4576;BME280;2300;51.874;8.430;2022-08-23T11:05:24;100735.50;;;29.97;48.81
4576;BME280;2300;51.874;8.430;2022-08-23T11:07:59;100722.53;;;29.96;46.73
4576;BME280;2300;51.874;8.430;2022-08-23T11:10:31;100713.97;;;29.92;48.61
4576;BME280;2300;51.874;8.430;2022-08-23T11:13:03;100722.19;;;29.97;48.42
4576;BME280;2300;51.874;8.430;2022-08-23T11:15:37;100718.63;;;29.85;48.36
4576;BME280;2300;51.874;8.430;2022-08-23T11:18:07;100724.09;;;29.93;48.85
4576;BME280;2300;51.874;8.430;2022-08-23T11:20:53;100715.25;;;29.95;47.31
4576;BME280;2300;51.874;8.430;2022-08-23T11:23:48;100713.88;;;29.89;46.42
4576;BME280;2300;51.874;8.430;2022-08-23T11:29:30;100714.53;;;29.98;47.80
4576;BME280;2300;51.874;8.430;2022-08-23T11:35:07;100711.94;;;30.36;48.72
4576;BME280;2300;51.874;8.430;2022-08-23T11:37:52;100712.22;;;30.47;45.71
4576;BME280;2300;51.874;8.430;2022-08-23T11:40:55;100705.00;;;30.34;47.07
4576;BME280;2300;51.874;8.430;2022-08-23T11:43:27;100705.06;;;30.37;46.50
4576;BME280;2300;51.874;8.430;2022-08-23T11:46:14;100704.06;;;30.45;47.05
4576;BME280;2300;51.874;8.430;2022-08-23T11:48:42;100702.78;;;30.58;46.01
4576;BME280;2300;51.874;8.430;2022-08-23T11:51:23;100701.41;;;30.68;47.54
4576;BME280;2300;51.874;8.430;2022-08-23T11:54:13;100700.13;;;30.50;45.41
4576;BME280;2300;51.874;8.430;2022-08-23T11:56:55;100695.31;;;30.50;44.63
4576;BME280;2300;51.874;8.430;2022-08-23T11:59:46;100686.44;;;30.52;46.42
4576;BME280;2300;51.874;8.430;2022-08-23T12:02:31;100700.69;;;30.71;46.82
4576;BME280;2300;51.874;8.430;2022-08-23T12:04:59;100693.81;;;30.88;46.06
4576;BME280;2300;51.874;8.430;2022-08-23T12:07:43;100684.72;;;30.98;45.17
4576;BME280;2300;51.874;8.430;2022-08-23T12:10:14;100682.53;;;30.91;44.20
4576;BME280;2300;51.874;8.430;2022-08-23T12:12:42;100690.75;;;30.96;47.02
4576;BME280;2300;51.874;8.430;2022-08-23T12:15:11;100674.66;;;31.01;46.11
4576;BME280;2300;51.874;8.430;2022-08-23T12:18:07;100680.25;;;30.97;44.83
4576;BME280;2300;51.874;8.430;2022-08-23T12:20:37;100676.75;;;31.04;45.43
4576;BME280;2300;51.874;8.430;2022-08-23T12:23:14;100684.03;;;31.05;45.26
4576;BME280;2300;51.874;8.430;2022-08-23T12:25:41;100679.19;;;31.05;44.23
4576;BME280;2300;51.874;8.430;2022-08-23T12:28:32;100671.28;;;30.95;45.47
4576;BME280;2300;51.874;8.430;2022-08-23T12:31:04;100669.34;;;30.99;43.76
4576;BME280;2300;51.874;8.430;2022-08-23T12:33:38;100682.69;;;31.14;45.94
4576;BME280;2300;51.874;8.430;2022-08-23T12:36:13;100677.47;;;31.16;45.14
4576;BME280;2300;51.874;8.430;2022-08-23T12:38:54;100673.34;;;31.14;44.37
4576;BME280;2300;51.874;8.430;2022-08-23T12:41:26;100671.25;;;31.30;45.70
4576;BME280;2300;51.874;8.430;2022-08-23T12:43:57;100664.69;;;31.26;44.97
4576;BME280;2300;51.874;8.430;2022-08-23T12:46:32;100668.94;;;31.16;43.47
4576;BME280;2300;51.874;8.430;2022-08-23T12:49:00;100667.44;;;31.03;43.98
4576;BME280;2300;51.874;8.430;2022-08-23T12:51:27;100669.41;;;31.18;45.23
4576;BME280;2300;51.874;8.430;2022-08-23T12:53:55;100676.22;;;31.33;44.90
4576;BME280;2300;51.874;8.430;2022-08-23T12:56:26;100675.44;;;31.36;42.93
4576;BME280;2300;51.874;8.430;2022-08-23T12:58:57;100672.22;;;31.57;43.63
4576;BME280;2300;51.874;8.430;2022-08-23T13:01:27;100679.25;;;31.63;42.71
4576;BME280;2300;51.874;8.430;2022-08-23T13:03:57;100668.81;;;31.48;43.07
4576;BME280;2300;51.874;8.430;2022-08-23T13:06:27;100666.94;;;31.17;42.73
4576;BME280;2300;51.874;8.430;2022-08-23T13:09:02;100663.66;;;30.80;43.46
4576;BME280;2300;51.874;8.430;2022-08-23T13:11:31;100663.25;;;30.97;44.00
4576;BME280;2300;51.874;8.430;2022-08-23T13:14:20;100658.97;;;31.22;43.34
4576;BME280;2300;51.874;8.430;2022-08-23T13:16:47;100662.31;;;31.28;42.80
4576;BME280;2300;51.874;8.430;2022-08-23T13:19:16;100653.13;;;31.15;44.51
4576;BME280;2300;51.874;8.430;2022-08-23T13:21:46;100644.81;;;31.07;44.10
4576;BME280;2300;51.874;8.430;2022-08-23T13:24:32;100648.91;;;31.09;44.13
4576;BME280;2300;51.874;8.430;2022-08-23T13:27:11;100644.00;;;31.06;43.42
4576;BME280;2300;51.874;8.430;2022-08-23T13:29:49;100649.22;;;31.04;44.38
4576;BME280;2300;51.874;8.430;2022-08-23T13:32:38;100658.53;;;31.05;44.79
4576;BME280;2300;51.874;8.430;2022-08-23T13:35:29;100655.75;;;30.89;44.43
4576;BME280;2300;51.874;8.430;2022-08-23T13:37:58;100659.94;;;30.95;43.02
4576;BME280;2300;51.874;8.430;2022-08-23T13:40:29;100646.81;;;30.87;43.16